Latest Weather Observations for West Wyalong

IDN60801

Issued at 5:02 pm EST Thursday 18 July 2019 (issued every 10 minutes, with the page automatically refreshed every 10 minutes)

About weather observations | Map of weather stations | Latest weather observations for NSW | Other Formats
Station Details ID: 050017 Name: WEST WYALONG AIRPORT AWS Lat: -33.94 Lon: 147.20 Height: 257.0 m
Data from the previous 72 hours. | See also: Recent months at West Wyalong
Date/Time
EST
Temp
°C
App
Temp
°C
Dew
Point
°C
Rel
Hum
%
Delta-T
°C
Wind Press
QNH
hPa
Press
MSL
hPa
Rain since
9am
mm
Dir  Spd
km/h
Gust
km/h
Spd
kts
Gust
kts
18/05:00pm 11.7 8.2 3.5 57 3.7 W 11 15 6 8 1019.5 1019.9 -
18/04:30pm 12.4 8.9 3.6 55 4.0 SW 11 15 6 8 1019.5 1019.9 0.0
18/04:00pm 12.7 8.8 3.4 53 4.2 W 13 20 7 11 1019.4 1019.8 0.0
18/03:30pm 12.7 8.0 3.4 53 4.2 WSW 17 28 9 15 1019.4 1019.8 0.0
18/03:00pm 12.7 8.5 3.6 54 4.1 WSW 15 22 8 12 1019.7 1020.1 0.0
18/02:30pm 12.6 8.0 3.6 54 4.1 WSW 17 26 9 14 1019.9 1020.3 0.0
18/02:00pm 12.7 7.2 3.9 55 4.0 WSW 22 28 12 15 1019.7 1020.1 0.0
18/01:30pm 12.6 7.4 3.6 54 4.1 WSW 20 30 11 16 1019.8 1020.2 0.0
18/01:00pm 12.4 6.5 4.1 57 3.8 WSW 24 33 13 18 1019.7 1020.1 0.0
18/12:30pm 11.4 5.5 3.7 59 3.5 WSW 24 33 13 18 1020.1 1020.5 0.0
18/12:00pm 11.4 5.5 3.9 60 3.4 WSW 24 32 13 17 1020.4 1020.9 0.0
18/11:30am 10.5 5.0 4.0 64 2.9 WSW 22 32 12 17 1021.0 1021.5 0.0
18/11:00am 10.6 5.8 4.7 67 2.7 WSW 19 26 10 14 1021.0 1021.5 0.0
18/10:30am 10.0 5.6 5.0 71 2.3 WSW 17 22 9 12 1020.9 1021.4 0.0
18/10:00am 9.9 5.1 5.5 74 2.0 WSW 20 28 11 15 1021.0 1021.5 0.0
18/09:30am 9.5 5.3 5.5 76 1.8 WSW 17 20 9 11 1020.6 1021.1 0.0
18/09:00am 9.1 5.3 5.8 80 1.5 W 15 17 8 9 1020.5 1021.0 -
18/08:30am 8.4 5.1 6.4 87 0.9 W 13 17 7 9 1020.2 1020.6 -
18/08:00am 7.3 5.1 6.1 92 0.5 WNW 7 9 4 5 1019.5 1019.9 -
18/06:00am 8.7 4.7 6.5 86 1.0 WSW 17 22 9 12 1019.3 1019.7 -
18/05:30am 8.7 4.1 6.7 87 0.9 WSW 20 30 11 16 1019.0 1019.4 -
18/05:00am 8.9 4.4 6.9 87 0.9 WSW 20 28 11 15 1018.6 1019.0 -
18/04:30am 9.0 4.7 6.8 86 1.0 WSW 19 28 10 15 1018.4 1018.8 -
18/04:00am 8.8 4.3 7.1 89 0.8 WSW 20 26 11 14 1018.5 1018.9 -
18/03:30am 9.2 4.7 6.8 85 1.1 WSW 20 30 11 16 1018.7 1019.1 -
18/03:00am 9.6 4.2 6.5 81 1.5 WSW 24 35 13 19 1018.8 1019.2 0.0
18/02:30am 10.0 5.0 6.3 78 1.7 WSW 22 33 12 18 1018.6 1019.0 -
18/02:00am 9.8 5.3 6.3 79 1.6 W 19 26 10 14 1018.6 1019.0 -
18/01:30am 9.8 5.1 6.0 77 1.8 WSW 20 26 11 14 1018.6 1019.0 -
18/01:00am 9.8 5.3 6.0 77 1.8 W 19 26 10 14 1018.4 1018.8 -
18/12:30am 9.6 5.4 5.8 77 1.8 W 17 22 9 12 1018.5 1018.9 -
18/12:00am 9.7 5.4 5.3 74 2.0 WSW 17 24 9 13 1018.6 1019.0 -
 
Date/Time
EST
Temp
°C
App
Temp
°C
Dew
Point
°C
Rel
Hum
%
Delta-T
°C
Wind Press
QNH
hPa
Press
MSL
hPa
Rain since
9am
mm
Dir  Spd
km/h
Gust
km/h
Spd
kts
Gust
kts
17/11:30pm 9.8 5.4 4.8 71 2.3 WSW 17 20 9 11 1019.1 1019.5 -
17/11:00pm 10.2 4.8 4.6 68 2.5 WSW 22 30 12 16 1018.9 1019.3 -
17/10:30pm 10.3 5.9 4.5 67 2.6 W 17 20 9 11 1018.9 1019.3 -
17/10:00pm 10.3 6.6 4.5 67 2.6 NW 13 17 7 9 1018.9 1019.3 -
17/09:30pm 10.2 6.9 4.4 67 2.6 NW 11 15 6 8 1019.0 1019.4 -
17/09:00pm 10.3 7.3 4.2 66 2.7 NW 9 13 5 7 1019.0 1019.4 0.0
17/08:30pm 10.4 7.4 4.1 65 2.8 NW 9 15 5 8 1019.0 1019.4 -
17/08:00pm 10.3 7.6 3.8 64 2.9 NW 7 11 4 6 1019.2 1019.6 -
17/07:30pm 10.5 7.1 3.8 63 3.0 NW 11 15 6 8 1019.0 1019.4 -
17/07:00pm 10.7 7.2 3.5 61 3.2 NW 11 15 6 8 1019.1 1019.5 -
17/06:30pm 10.7 6.8 3.3 60 3.3 NW 13 15 7 8 1018.9 1019.3 -
17/06:00pm 10.8 6.8 3.1 59 3.4 NW 13 20 7 11 1018.6 1019.0 -
17/05:30pm 11.2 7.2 3.0 57 3.6 WNW 13 20 7 11 1018.8 1019.2 -
17/05:00pm 11.5 6.4 2.8 55 3.8 WNW 19 26 10 14 1018.7 1019.1 -
17/04:30pm 12.0 7.3 3.0 54 4.0 W 17 30 9 16 1018.7 1019.1 -
17/04:00pm 11.7 6.3 2.7 54 4.0 W 20 35 11 19 1019.0 1019.4 -
17/03:30pm 11.8 6.7 2.8 54 4.0 WSW 19 22 10 12 1019.3 1019.7 -
17/03:00pm 12.3 6.9 2.7 52 4.2 WSW 20 28 11 15 1019.5 1019.9 -
17/02:30pm 11.5 6.1 2.5 54 3.9 WSW 20 32 11 17 1019.8 1020.2 -
17/02:00pm 12.5 7.2 2.9 52 4.3 SW 20 26 11 14 1019.8 1020.2 -
17/01:30pm 11.5 5.7 2.5 54 3.9 WSW 22 30 12 16 1020.0 1020.4 -
17/01:00pm 11.2 5.5 2.8 56 3.7 SW 22 30 12 16 1020.4 1020.9 -
17/12:30pm 10.9 5.5 2.5 56 3.7 WSW 20 26 11 14 1021.2 1021.6 -
17/12:00pm 10.5 4.4 2.8 59 3.4 WSW 24 30 13 16 1021.8 1022.2 -
17/11:30am 10.3 4.4 4.0 65 2.8 WSW 24 33 13 18 1022.2 1022.6 -
17/11:00am 10.6 5.6 4.5 66 2.8 WSW 20 28 11 15 1022.7 1023.1 -
17/10:30am 10.6 5.5 4.3 65 2.9 WSW 20 26 11 14 1022.9 1023.3 -
17/10:00am 10.2 5.2 4.8 69 2.5 WSW 20 26 11 14 1023.0 1023.4 -
17/09:30am 10.2 5.4 4.8 69 2.5 WSW 19 28 10 15 1023.1 1023.5 -
17/04:30am 9.8 6.8 6.2 78 1.7 W 11 15 6 8 1022.2 1022.6 0.0
17/04:00am 9.9 7.3 6.1 77 1.8 WSW 9 13 5 7 1022.4 1022.8 0.0
17/03:30am 10.0 6.3 6.2 77 1.8 WSW 15 20 8 11 1022.6 1023.0 0.0
17/03:00am 9.9 6.6 6.4 79 1.6 WSW 13 19 7 10 1023.0 1023.4 0.0
17/02:30am 10.0 6.7 6.3 78 1.7 WSW 13 15 7 8 1023.2 1023.6 0.0
17/02:00am 9.9 6.2 6.3 78 1.7 WSW 15 17 8 9 1023.4 1023.8 0.0
17/01:30am 9.9 6.2 6.3 78 1.7 W 15 20 8 11 1023.6 1024.0 0.0
17/01:00am 9.9 6.6 6.4 79 1.6 WSW 13 17 7 9 1023.7 1024.2 0.0
17/12:30am 9.9 6.2 6.4 79 1.7 W 15 20 8 11 1023.8 1024.3 0.0
17/12:00am 10.0 6.3 6.5 79 1.6 WSW 15 20 8 11 1024.1 1024.6 0.0
 
Date/Time
EST
Temp
°C
App
Temp
°C
Dew
Point
°C
Rel
Hum
%
Delta-T
°C
Wind Press
QNH
hPa
Press
MSL
hPa
Rain since
9am
mm
Dir  Spd
km/h
Gust
km/h
Spd
kts
Gust
kts
16/11:30pm 10.0 6.0 6.5 79 1.7 W 17 20 9 11 1024.1 1024.6 0.0
16/11:00pm 10.1 6.8 6.4 78 1.7 W 13 17 7 9 1024.5 1025.0 0.0
16/10:30pm 10.2 6.5 6.5 78 1.8 W 15 24 8 13 1024.5 1025.0 0.0
16/10:00pm 10.2 6.2 6.5 78 1.7 WSW 17 22 9 12 1024.6 1025.1 0.0
16/09:30pm 10.3 5.9 6.5 77 1.8 WSW 19 24 10 13 1024.7 1025.2 0.0
16/09:00pm 10.5 6.1 6.5 76 1.9 WSW 19 24 10 13 1024.6 1025.1 0.0
16/08:30pm 10.6 6.5 6.4 75 2.0 WSW 17 22 9 12 1024.4 1024.9 0.0
16/08:00pm 10.5 8.4 6.8 78 1.8 WSW 7 11 4 6 1024.4 1024.9 0.0
16/07:30pm 10.7 7.4 6.6 76 2.0 WSW 13 19 7 10 1024.3 1024.8 0.0
16/07:00pm 10.9 6.9 6.6 75 2.0 WSW 17 20 9 11 1024.0 1024.5 0.0
16/06:30pm 10.8 7.5 6.6 75 2.0 WSW 13 17 7 9 1024.0 1024.5 0.0
16/06:00pm 10.9 8.0 6.5 74 2.1 SW 11 13 6 7 1023.8 1024.3 0.0
16/05:30pm 11.1 7.3 6.0 71 2.4 WSW 15 24 8 13 1023.7 1024.2 0.0
16/05:00pm 11.1 6.3 5.6 69 2.6 SW 20 32 11 17 1023.5 1023.9 0.0
16/04:30pm 11.4 5.4 5.5 67 2.8 SW 26 32 14 17 1023.3 1023.7 0.0
16/04:00pm 11.8 6.4 6.3 69 2.6 SW 24 32 13 17 1023.4 1023.8 0.0
16/03:30pm 11.9 6.8 6.0 67 2.8 WSW 22 32 12 17 1023.3 1023.7 0.0
16/03:00pm 12.2 6.2 5.4 63 3.2 SW 26 33 14 18 1023.4 1023.8 0.0
16/02:30pm 11.5 5.8 6.6 72 2.4 SW 26 35 14 19 1023.5 1023.9 0.0
16/02:00pm 11.3 5.1 6.2 71 2.4 SW 28 35 15 19 1023.7 1024.2 0.0
16/01:30pm 11.4 5.2 6.1 70 2.5 SW 28 35 15 19 1023.9 1024.4 0.0
16/01:00pm 11.5 4.9 6.2 70 2.5 SW 30 43 16 23 1023.8 1024.3 0.0
16/12:30pm 11.7 5.2 6.4 70 2.5 SW 30 41 16 22 1024.0 1024.5 0.0
16/12:00pm 12.3 5.5 6.8 69 2.7 WSW 32 39 17 21 1024.2 1024.7 0.0
16/11:30am 12.3 6.8 7.6 73 2.3 WSW 26 35 14 19 1024.5 1025.0 0.0
16/11:00am 11.6 6.5 7.5 76 2.0 WSW 24 32 13 17 1025.0 1025.5 0.0
16/10:30am 10.9 6.7 7.4 79 1.7 SW 19 28 10 15 1025.3 1025.7 0.0
16/10:00am 10.3 6.1 7.5 83 1.4 WSW 19 24 10 13 1025.2 1025.6 0.0
16/09:30am 9.5 5.3 7.6 88 0.9 WSW 19 24 10 13 1025.0 1025.5 0.0
16/09:00am 8.9 - 7.8 93 0.5 - - - - - 1024.8 1025.3 -
16/07:00am 8.3 4.0 7.7 96 0.3 WSW 20 30 11 16 1023.8 1024.3 0.0
16/06:30am 8.8 4.5 8.0 95 0.4 WSW 20 26 11 14 1023.5 1023.9 0.0
16/06:00am 9.0 5.7 8.1 94 0.4 WSW 15 20 8 11 1023.3 1023.7 0.0
16/05:30am 9.0 5.3 8.1 94 0.4 WSW 17 22 9 12 1023.3 1023.7 0.0
16/05:00am 8.9 4.8 8.0 94 0.4 WSW 19 28 10 15 1023.1 1023.5 0.0
16/04:30am 8.6 4.3 7.7 94 0.4 WSW 20 24 11 13 1022.9 1023.3 0.0
16/04:00am 8.5 4.3 7.6 94 0.4 WSW 19 24 10 13 1022.9 1023.3 0.0
16/03:30am 8.2 4.3 7.1 93 0.5 WSW 17 20 9 11 1022.9 1023.3 0.0
16/03:00am 8.3 4.4 7.1 92 0.6 SW 17 20 9 11 1023.2 1023.6 0.0
16/02:30am 8.6 5.1 7.2 91 0.7 SW 15 20 8 11 1023.8 1024.3 0.0
16/02:00am 8.5 4.6 7.0 90 0.7 WSW 17 20 9 11 1024.2 1024.7 0.0
16/01:30am 8.1 4.5 6.7 91 0.7 WSW 15 20 8 11 1024.3 1024.8 0.0
16/01:00am 6.8 3.4 5.7 93 0.5 WSW 13 15 7 8 1024.5 1025.0 0.0
16/12:30am 6.1 2.8 4.7 91 0.6 WSW 11 13 6 7 1024.7 1025.2 0.0
16/12:00am 7.0 3.8 5.2 88 0.8 WSW 11 13 6 7 1024.8 1025.3 0.0
 
Date/Time
EST
Temp
°C
App
Temp
°C
Dew
Point
°C
Rel
Hum
%
Delta-T
°C
Wind Press
QNH
hPa
Press
MSL
hPa
Rain since
9am
mm
Dir  Spd
km/h
Gust
km/h
Spd
kts
Gust
kts
15/11:30pm 8.0 4.9 5.5 84 1.1 WSW 11 13 6 7 1025.5 1025.9 0.0
15/11:00pm 8.0 4.5 5.3 83 1.2 W 13 15 7 8 1025.4 1025.8 0.0
15/10:30pm 8.3 5.2 5.4 82 1.3 WSW 11 15 6 8 1025.2 1025.6 0.0
15/10:00pm 8.2 4.2 5.1 81 1.4 SW 15 20 8 11 1025.0 1025.5 0.0
15/09:30pm 8.3 4.3 5.1 80 1.4 SW 15 19 8 10 1024.9 1025.4 0.0
15/09:00pm 8.6 4.2 5.0 78 1.6 SW 17 24 9 13 1024.8 1025.3 0.0
15/08:30pm 8.5 4.5 4.7 77 1.7 SW 15 20 8 11 1024.6 1025.1 0.0
15/08:00pm 8.3 3.9 4.5 77 1.7 SW 17 20 9 11 1024.6 1025.1 0.0
15/07:30pm 8.8 4.7 4.6 75 1.9 WSW 15 19 8 10 1024.5 1025.0 0.0
15/07:00pm 8.7 5.7 4.3 74 1.9 WSW 9 11 5 6 1024.3 1024.8 0.0
15/06:30pm 9.6 5.9 4.2 69 2.4 WSW 13 17 7 9 1024.1 1024.6 0.0
15/06:00pm 10.3 5.8 4.0 65 2.8 SW 17 24 9 13 1023.9 1024.4 0.0
15/05:30pm 10.9 4.2 3.7 61 3.2 SW 28 39 15 21 1023.7 1024.2 0.0

Other formats

Comma delimited format used in spreadsheet applications
http://www.bom.gov.au/fwo/IDN60801/IDN60801.95709.axf

JavaScript Object Notation format (JSON) in row-major order
http://www.bom.gov.au/fwo/IDN60801/IDN60801.95709.json

Data quality

Most of these data are generated automatically and are frequently updated. Quality checks on data are not normally performed. It is possible for incorrect values to appear. Refer to information at About Latest Weather Observations and please check the disclaimer before using these data.